Time;durP1;ratioP1;P1;durP2;ratioP2;P2;SDS_P1;SDS_P2;PMS_P1;PMS_P2;Temp;Humidity;BMP_temperature;BMP_pressure;BME280_temperature;BME280_humidity;BME280_pressure;Samples;Min_cycle;Max_cycle;Signal;HPM_P1;HPM_P2
2021/07/01 00:01:07;;;;;;;6.30;5.13;;;14.10;99.90;;;;;;5114749;28;20734;-68
2021/07/01 00:03:34;;;;;;;5.53;5.00;;;14.00;99.90;;;;;;5114883;28;20568;-68
2021/07/01 00:06:00;;;;;;;8.45;5.70;;;14.00;99.90;;;;;;5114955;28;20203;-69
2021/07/01 00:08:27;;;;;;;6.00;5.60;;;14.00;99.90;;;;;;5114724;28;20194;-69
2021/07/01 00:10:53;;;;;;;6.47;5.25;;;14.00;99.90;;;;;;5115050;28;20588;-69
2021/07/01 00:13:19;;;;;;;6.83;5.60;;;14.00;99.90;;;;;;5114612;28;20194;-69
2021/07/01 00:15:46;;;;;;;6.67;5.97;;;13.90;99.90;;;;;;5114486;28;20602;-69
2021/07/01 00:18:12;;;;;;;6.33;5.67;;;14.00;99.90;;;;;;5114453;28;20644;-69
2021/07/01 00:20:39;;;;;;;7.17;6.37;;;13.90;99.90;;;;;;5114609;28;20588;-70
2021/07/01 00:23:05;;;;;;;6.93;5.43;;;13.90;99.90;;;;;;5114536;28;20599;-70
2021/07/01 00:25:32;;;;;;;6.53;5.43;;;13.90;99.90;;;;;;5114006;28;20616;-69
2021/07/01 00:27:59;;;;;;;7.83;4.77;;;13.90;99.90;;;;;;5114324;28;20217;-70
2021/07/01 00:30:25;;;;;;;5.53;4.85;;;13.90;99.90;;;;;;5113672;28;20627;-68
2021/07/01 00:32:52;;;;;;;4.68;4.18;;;13.90;99.90;;;;;;5113727;28;20561;-68
2021/07/01 00:35:19;;;;;;;5.43;5.00;;;13.90;99.90;;;;;;5114482;28;20187;-70
2021/07/01 00:37:45;;;;;;;6.13;5.30;;;14.00;99.90;;;;;;5113700;28;20219;-69
2021/07/01 00:40:14;;;;;;;5.95;4.72;;;14.00;99.90;;;;;;5114067;28;20630;-69
2021/07/01 00:42:40;;;;;;;6.65;5.57;;;14.00;99.90;;;;;;5114205;28;20210;-70
2021/07/01 00:45:08;;;;;;;6.20;5.30;;;14.00;99.90;;;;;;5113636;28;20266;-69
2021/07/01 00:47:35;;;;;;;6.30;5.70;;;14.00;99.90;;;;;;5113430;28;21146;-69
2021/07/01 00:50:10;;;;;;;6.00;5.40;;;14.00;99.90;;;;;;5114242;28;20943;-69
2021/07/01 00:52:38;;;;;;;5.93;5.33;;;14.00;99.90;;;;;;5114211;28;20261;-69
2021/07/01 00:55:09;;;;;;;8.80;4.47;;;14.00;99.90;;;;;;5114048;28;21020;-69
2021/07/01 00:57:37;;;;;;;5.77;4.93;;;14.10;99.90;;;;;;5113384;28;20662;-69
2021/07/01 01:00:38;;;;;;;6.17;5.77;;;14.00;99.90;;;;;;5113905;28;20584;-69
2021/07/01 01:02:59;;;;;;;7.50;4.97;;;14.00;99.90;;;;;;5113320;28;21101;-68
2021/07/01 01:05:25;;;;;;;5.87;5.20;;;14.00;99.90;;;;;;5113008;28;20608;-68
2021/07/01 01:07:52;;;;;;;5.37;4.87;;;14.00;99.90;;;;;;5095484;28;20991;-68
2021/07/01 01:10:19;;;;;;;6.33;5.00;;;14.00;99.90;;;;;;5113751;28;20677;-69
2021/07/01 01:12:45;;;;;;;5.93;5.43;;;14.00;99.90;;;;;;5113929;28;20658;-69
2021/07/01 01:15:12;;;;;;;8.40;5.63;;;14.00;99.90;;;;;;5113927;28;20589;-69
2021/07/01 01:17:42;;;;;;;6.43;5.07;;;14.00;99.90;;;;;;5113709;28;20673;-69
2021/07/01 01:20:09;;;;;;;8.57;5.93;;;14.00;99.90;;;;;;5114066;28;20198;-69
2021/07/01 01:22:35;;;;;;;7.40;5.37;;;14.00;99.90;;;;;;5113870;28;20594;-69
2021/07/01 01:25:03;;;;;;;5.30;4.53;;;14.00;99.90;;;;;;5113707;28;20597;-69
2021/07/01 01:27:29;;;;;;;5.90;5.30;;;14.00;99.90;;;;;;5114154;28;21135;-69
2021/07/01 01:29:55;;;;;;;5.53;5.03;;;14.00;99.90;;;;;;5095759;28;20592;-69
2021/07/01 01:32:22;;;;;;;6.10;5.50;;;14.00;99.90;;;;;;5074658;28;20666;-69
2021/07/01 01:34:48;;;;;;;6.20;5.53;;;14.00;99.90;;;;;;5092024;28;20589;-69
2021/07/01 01:37:14;;;;;;;6.17;5.50;;;14.00;99.90;;;;;;5093342;28;20215;-69
2021/07/01 01:39:49;;;;;;;6.17;4.87;;;14.00;99.90;;;;;;5093264;28;20601;-69
2021/07/01 01:42:16;;;;;;;5.73;5.17;;;14.00;99.90;;;;;;5093296;28;20639;-69
2021/07/01 01:44:42;;;;;;;11.27;5.32;;;14.00;99.90;;;;;;5093021;28;20601;-69
2021/07/01 01:47:18;;;;;;;6.55;5.35;;;14.00;99.90;;;;;;5091589;28;20678;-69
2021/07/01 01:49:48;;;;;;;5.13;4.73;;;14.00;99.90;;;;;;5093087;28;20237;-69
2021/07/01 01:52:15;;;;;;;8.27;4.90;;;14.00;99.90;;;;;;5093090;28;20550;-69
2021/07/01 01:54:43;;;;;;;7.47;4.40;;;14.00;99.90;;;;;;5093075;28;20600;-69
2021/07/01 01:57:09;;;;;;;6.80;4.40;;;14.00;99.90;;;;;;5091752;28;20601;-69
2021/07/01 01:59:36;;;;;;;7.97;4.77;;;14.00;99.90;;;;;;5093880;28;20604;-69
2021/07/01 02:02:03;;;;;;;6.27;5.57;;;14.00;99.90;;;;;;5096762;28;20977;-68
2021/07/01 02:04:30;;;;;;;6.30;5.10;;;14.00;99.90;;;;;;5096766;28;20589;-68
2021/07/01 02:06:56;;;;;;;5.80;4.70;;;14.00;99.90;;;;;;5096664;28;20206;-69
2021/07/01 02:09:23;;;;;;;6.50;4.90;;;14.00;99.90;;;;;;5096504;28;20604;-69
2021/07/01 02:11:50;;;;;;;9.32;5.68;;;14.00;99.90;;;;;;5096488;28;20600;-69
2021/07/01 02:14:19;;;;;;;5.83;5.33;;;13.90;99.90;;;;;;5095190;28;20191;-69
2021/07/01 02:16:46;;;;;;;4.90;4.50;;;13.90;99.90;;;;;;5096286;28;20574;-69
2021/07/01 02:19:12;;;;;;;5.85;4.68;;;14.00;99.90;;;;;;5096160;28;20636;-69
2021/07/01 02:21:39;;;;;;;7.00;4.90;;;13.90;99.90;;;;;;5096393;28;20703;-69
2021/07/01 02:24:05;;;;;;;6.07;5.10;;;13.90;99.90;;;;;;5096132;28;20601;-67
2021/07/01 02:26:31;;;;;;;5.43;5.00;;;14.00;99.90;;;;;;5095921;28;20192;-67
2021/07/01 02:28:58;;;;;;;11.10;5.23;;;14.00;99.90;;;;;;5096259;28;20589;-67
2021/07/01 02:31:24;;;;;;;6.20;5.00;;;14.00;99.90;;;;;;5104674;28;20643;-68
2021/07/01 02:33:50;;;;;;;5.70;5.20;;;14.00;99.90;;;;;;5116566;28;20608;-68
2021/07/01 02:36:17;;;;;;;5.50;5.00;;;14.00;99.90;;;;;;5116716;28;20599;-68
2021/07/01 02:38:43;;;;;;;6.13;5.50;;;14.00;99.90;;;;;;5116171;28;20669;-68
2021/07/01 02:41:09;;;;;;;5.75;5.25;;;14.00;99.90;;;;;;5115990;28;21169;-68
2021/07/01 02:43:36;;;;;;;6.33;5.70;;;14.00;99.90;;;;;;5115595;28;20198;-68
2021/07/01 02:46:02;;;;;;;6.37;5.87;;;14.00;99.90;;;;;;5098004;28;20694;-68
2021/07/01 02:48:28;;;;;;;6.67;6.07;;;13.90;99.90;;;;;;5116395;28;20596;-68
2021/07/01 02:50:55;;;;;;;10.80;5.90;;;13.90;99.90;;;;;;5115937;28;21169;-68
2021/07/01 02:53:21;;;;;;;5.78;5.22;;;13.90;99.90;;;;;;5115875;28;20604;-68
2021/07/01 02:55:47;;;;;;;8.43;5.97;;;13.90;99.90;;;;;;5115768;28;20654;-68
2021/07/01 02:58:14;;;;;;;8.70;5.77;;;14.00;99.90;;;;;;5097812;28;20743;-68
2021/07/01 03:00:40;;;;;;;8.50;5.67;;;14.00;99.90;;;;;;5115655;28;21038;-68
2021/07/01 03:03:06;;;;;;;8.20;6.07;;;13.90;99.90;;;;;;5115507;28;20599;-68
2021/07/01 03:05:33;;;;;;;6.30;5.80;;;13.90;99.90;;;;;;5115408;28;20593;-68
2021/07/01 03:07:59;;;;;;;7.75;6.68;;;14.00;99.90;;;;;;5115108;28;20616;-68
2021/07/01 03:10:25;;;;;;;6.07;5.47;;;13.90;99.90;;;;;;5097006;28;20569;-68
2021/07/01 03:12:52;;;;;;;7.60;6.63;;;14.00;99.90;;;;;;5115179;28;20631;-68
2021/07/01 03:15:18;;;;;;;8.83;6.80;;;13.90;99.90;;;;;;5115567;28;21119;-68
2021/07/01 03:17:44;;;;;;;6.97;6.30;;;13.90;99.90;;;;;;5115358;28;20636;-68
2021/07/01 03:20:11;;;;;;;7.27;6.60;;;13.90;99.90;;;;;;5115438;28;20608;-68
2021/07/01 03:22:37;;;;;;;6.05;5.45;;;14.00;99.90;;;;;;5114634;28;20730;-68
2021/07/01 03:25:04;;;;;;;8.77;6.20;;;14.00;99.90;;;;;;5115079;28;20661;-68
2021/07/01 03:27:31;;;;;;;6.20;5.70;;;14.00;99.90;;;;;;5115117;28;20983;-68
2021/07/01 03:29:57;;;;;;;8.13;6.43;;;14.00;99.90;;;;;;5097564;28;21211;-68
2021/07/01 03:32:23;;;;;;;7.50;6.80;;;14.00;99.90;;;;;;5115014;28;20615;-69
2021/07/01 03:34:51;;;;;;;6.68;6.07;;;14.10;99.90;;;;;;5096721;28;20703;-68
2021/07/01 03:37:17;;;;;;;7.57;6.87;;;14.10;99.90;;;;;;5114254;28;20198;-69
2021/07/01 03:39:43;;;;;;;7.47;6.77;;;14.10;99.90;;;;;;5096544;28;21050;-68
2021/07/01 03:42:11;;;;;;;7.57;6.30;;;14.10;99.90;;;;;;5114851;28;21184;-68
2021/07/01 03:44:37;;;;;;;9.00;6.70;;;14.20;99.90;;;;;;5114295;28;20210;-68
2021/07/01 03:47:06;;;;;;;10.13;7.53;;;14.20;99.90;;;;;;5114940;28;20927;-68
2021/07/01 03:49:32;;;;;;;8.82;8.02;;;14.10;99.90;;;;;;5114155;28;20631;-68
2021/07/01 03:51:59;;;;;;;8.10;6.43;;;14.10;99.90;;;;;;5096910;28;20186;-68
2021/07/01 03:54:25;;;;;;;11.88;7.25;;;14.00;99.90;;;;;;5114742;28;20191;-68
2021/07/01 03:56:52;;;;;;;19.67;8.10;;;14.00;99.90;;;;;;5096100;28;20581;-68
2021/07/01 03:59:18;;;;;;;9.80;7.00;;;14.00;99.90;;;;;;5114468;28;20639;-68
2021/07/01 04:01:44;;;;;;;8.63;7.67;;;13.90;99.90;;;;;;5114037;28;20210;-68
2021/07/01 04:04:11;;;;;;;9.00;6.73;;;13.90;99.90;;;;;;5114391;28;20567;-68
2021/07/01 04:06:37;;;;;;;15.55;7.43;;;13.90;99.90;;;;;;5114407;28;20567;-68
2021/07/01 04:09:05;;;;;;;8.00;7.20;;;13.90;99.90;;;;;;5114188;28;20209;-68
2021/07/01 04:11:32;;;;;;;7.73;6.57;;;13.90;99.90;;;;;;5114386;28;20574;-68
2021/07/01 04:13:59;;;;;;;7.53;6.83;;;13.80;99.90;;;;;;5114091;28;20698;-68
2021/07/01 04:16:26;;;;;;;9.83;8.23;;;13.80;99.90;;;;;;5114256;28;20592;-67
2021/07/01 04:18:52;;;;;;;10.25;8.07;;;13.80;99.90;;;;;;5114280;28;20642;-69
2021/07/01 04:21:19;;;;;;;7.37;6.77;;;13.90;99.90;;;;;;5114396;28;20197;-69
2021/07/01 04:23:46;;;;;;;8.02;7.22;;;13.90;99.90;;;;;;5113118;28;20638;-69
2021/07/01 04:26:13;;;;;;;10.93;7.95;;;13.90;99.90;;;;;;5114182;28;20248;-68
2021/07/01 04:28:39;;;;;;;8.10;7.00;;;13.80;99.90;;;;;;5062109;28;20198;-68
2021/07/01 04:31:06;;;;;;;7.13;5.73;;;13.90;99.90;;;;;;5113933;28;20719;-69
2021/07/01 04:33:32;;;;;;;7.15;6.53;;;13.90;99.90;;;;;;5114343;28;20937;-68
2021/07/01 04:35:59;;;;;;;13.18;6.75;;;13.90;99.90;;;;;;5114362;28;20202;-69
2021/07/01 04:38:25;;;;;;;8.23;7.27;;;13.90;99.90;;;;;;5095729;28;20211;-68
2021/07/01 04:40:54;;;;;;;6.83;6.13;;;13.90;99.90;;;;;;5113983;28;20616;-68
2021/07/01 04:43:20;;;;;;;9.80;6.40;;;13.90;99.90;;;;;;5114193;28;20616;-68
2021/07/01 04:45:46;;;;;;;8.77;6.27;;;13.90;99.90;;;;;;5113570;28;21027;-68
2021/07/01 04:48:13;;;;;;;4.80;4.47;;;13.90;99.90;;;;;;5113969;28;20695;-69
2021/07/01 04:50:39;;;;;;;5.83;5.23;;;14.00;99.90;;;;;;5114098;28;21161;-69
2021/07/01 04:53:06;;;;;;;8.40;4.97;;;14.00;99.90;;;;;;5113804;28;20639;-69
2021/07/01 04:55:32;;;;;;;5.70;5.20;;;14.10;99.90;;;;;;5113690;28;20602;-69
2021/07/01 04:57:58;;;;;;;9.30;4.30;;;14.10;99.90;;;;;;5096126;28;21190;-70
2021/07/01 05:00:25;;;;;;;11.60;5.70;;;14.10;99.90;;;;;;5095819;28;20668;-69
2021/07/01 05:02:51;;;;;;;4.87;4.47;;;14.10;99.90;;;;;;5113653;28;20604;-69
2021/07/01 05:05:17;;;;;;;4.97;4.47;;;14.10;99.90;;;;;;5113993;28;20646;-69
2021/07/01 05:07:45;;;;;;;9.93;4.80;;;14.10;99.90;;;;;;5113999;28;20612;-69
2021/07/01 05:10:14;;;;;;;5.10;4.60;;;14.10;99.90;;;;;;5096385;28;20621;-68
2021/07/01 05:12:40;;;;;;;7.22;5.53;;;14.20;99.90;;;;;;5113914;28;20703;-69
2021/07/01 05:15:08;;;;;;;6.60;4.37;;;14.20;99.90;;;;;;5113001;28;20201;-70
2021/07/01 05:17:34;;;;;;;8.38;4.95;;;14.20;99.90;;;;;;5113624;28;20703;-69
2021/07/01 05:20:00;;;;;;;5.80;4.35;;;14.20;99.90;;;;;;5113323;28;20654;-70
2021/07/01 05:22:27;;;;;;;9.70;4.50;;;14.20;99.90;;;;;;5113421;28;20202;-69
2021/07/01 05:24:53;;;;;;;10.65;5.85;;;14.30;99.90;;;;;;5113482;28;20210;-70
2021/07/01 05:27:20;;;;;;;5.00;4.60;;;14.40;99.90;;;;;;5113686;28;20186;-70
2021/07/01 05:29:46;;;;;;;6.23;4.73;;;14.30;99.90;;;;;;5113288;28;20599;-68
2021/07/01 05:32:13;;;;;;;4.30;3.95;;;14.40;99.90;;;;;;5113181;28;20668;-68
2021/07/01 05:34:40;;;;;;;4.83;4.30;;;14.40;99.90;;;;;;5114062;28;20198;-69
2021/07/01 05:37:06;;;;;;;7.05;4.25;;;14.40;99.90;;;;;;5117527;28;20591;-69
2021/07/01 05:39:32;;;;;;;4.20;3.90;;;14.50;99.90;;;;;;5098636;28;20226;-69
2021/07/01 05:41:59;;;;;;;7.13;4.53;;;14.50;99.90;;;;;;5099083;28;20226;-69
2021/07/01 05:44:25;;;;;;;4.83;4.33;;;14.50;99.90;;;;;;5117015;28;21013;-69
2021/07/01 05:46:51;;;;;;;5.67;4.60;;;14.60;99.90;;;;;;5117014;28;20654;-69
2021/07/01 05:49:18;;;;;;;6.40;4.20;;;14.60;99.90;;;;;;5117372;28;20596;-69
2021/07/01 05:51:44;;;;;;;6.30;3.85;;;14.50;99.90;;;;;;5116977;28;20559;-69
2021/07/01 05:56:52;;;;;;;3.67;3.23;;;14.60;99.90;;;;;;5117058;28;20634;-69
2021/07/01 05:59:20;;;;;;;8.33;3.83;;;14.70;99.90;;;;;;5116873;28;20599;-69
2021/07/01 06:01:47;;;;;;;3.90;3.47;;;14.80;99.90;;;;;;5116848;28;21152;-69
2021/07/01 06:04:13;;;;;;;9.00;3.50;;;14.70;99.90;;;;;;5116868;28;21136;-69
2021/07/01 06:06:45;;;;;;;6.10;3.03;;;14.80;99.90;;;;;;5098869;28;20603;-69
2021/07/01 06:09:14;;;;;;;9.63;3.83;;;15.00;99.90;;;;;;5116912;28;20567;-69
2021/07/01 06:11:42;;;;;;;4.73;3.43;;;15.00;99.90;;;;;;5116912;28;20622;-69
2021/07/01 06:14:08;;;;;;;6.93;3.50;;;14.90;99.90;;;;;;5116697;28;20940;-69
2021/07/01 06:16:36;;;;;;;6.10;4.20;;;15.00;99.90;;;;;;5116685;28;21195;-69
2021/07/01 06:19:04;;;;;;;4.50;3.73;;;14.90;99.90;;;;;;5116451;28;20642;-68
2021/07/01 06:21:32;;;;;;;12.27;3.87;;;15.00;99.90;;;;;;5116011;28;20608;-68
2021/07/01 06:23:58;;;;;;;5.53;3.70;;;15.10;99.90;;;;;;5116505;28;20681;-70
2021/07/01 06:26:28;;;;;;;4.17;3.30;;;15.20;99.90;;;;;;5116537;28;21222;-68
2021/07/01 06:28:55;;;;;;;4.33;3.90;;;15.30;99.90;;;;;;5116002;28;20628;-69
2021/07/01 06:31:22;;;;;;;4.33;3.40;;;15.30;99.90;;;;;;5116215;28;20647;-68
2021/07/01 06:33:49;;;;;;;4.20;3.50;;;15.30;99.90;;;;;;5116718;28;20687;-69
2021/07/01 06:36:18;;;;;;;14.53;4.17;;;15.30;99.90;;;;;;5098213;28;20616;-69
2021/07/01 06:38:57;;;;;;;4.60;3.83;;;15.40;99.90;;;;;;5097984;28;20636;-69
2021/07/01 06:41:27;;;;;;;18.93;3.80;;;15.50;99.90;;;;;;5116203;28;20623;-69
2021/07/01 06:43:55;;;;;;;9.07;3.83;;;15.50;99.90;;;;;;5115346;28;20635;-69
2021/07/01 06:46:23;;;;;;;12.83;4.33;;;15.60;99.90;;;;;;5115610;28;20682;-69
2021/07/01 06:48:52;;;;;;;6.30;3.97;;;15.50;99.90;;;;;;5115231;28;20654;-68
2021/07/01 06:51:18;;;;;;;4.07;3.80;;;15.50;99.90;;;;;;5115595;28;20628;-68
2021/07/01 06:53:46;;;;;;;19.03;5.53;;;15.50;99.90;;;;;;5116047;28;20636;-68
2021/07/01 06:56:15;;;;;;;3.33;3.03;;;15.70;99.90;;;;;;5115743;28;20596;-68
2021/07/01 06:58:43;;;;;;;7.87;3.97;;;15.70;99.90;;;;;;5115659;28;20647;-68
2021/07/01 07:01:10;;;;;;;6.60;4.13;;;15.80;99.90;;;;;;5115700;28;21141;-68
2021/07/01 07:03:37;;;;;;;9.83;5.17;;;15.90;99.90;;;;;;5115944;28;20605;-68
2021/07/01 07:06:05;;;;;;;4.10;3.50;;;16.10;99.90;;;;;;5115706;28;20592;-68
2021/07/01 07:08:31;;;;;;;15.20;3.90;;;15.90;99.90;;;;;;5115211;28;20627;-68
2021/07/01 07:10:59;;;;;;;43.67;8.80;;;15.90;99.90;;;;;;5097210;28;20616;-68
2021/07/01 07:13:28;;;;;;;22.20;4.90;;;16.10;99.90;;;;;;5097794;28;20584;-68
2021/07/01 07:15:59;;;;;;;3.20;2.90;;;16.20;99.90;;;;;;5097067;28;20627;-68
2021/07/01 07:18:30;;;;;;;6.73;3.27;;;16.30;99.90;;;;;;5115045;28;21187;-68
2021/07/01 07:20:58;;;;;;;3.67;2.93;;;16.20;99.90;;;;;;5097188;28;20963;-68
2021/07/01 07:23:33;;;;;;;3.90;3.60;;;16.30;99.90;;;;;;5115058;28;20620;-68
2021/07/01 07:26:07;;;;;;;4.57;3.20;;;16.00;99.90;;;;;;5097323;28;20567;-68
2021/07/01 07:28:37;;;;;;;3.27;2.93;;;16.30;99.90;;;;;;5115293;28;20930;-69
2021/07/01 07:31:05;;;;;;;13.57;4.30;;;16.50;99.90;;;;;;5115035;28;20644;-67
2021/07/01 07:33:32;;;;;;;3.17;2.87;;;16.70;99.90;;;;;;5115356;28;20550;-67
2021/07/01 07:36:00;;;;;;;119.53;18.10;;;16.40;99.90;;;;;;5114860;28;20624;-68
2021/07/01 07:38:28;;;;;;;72.30;11.23;;;16.40;99.90;;;;;;5115144;28;21190;-68
2021/07/01 07:40:55;;;;;;;189.80;21.10;;;16.50;99.90;;;;;;5114656;28;20644;-69
2021/07/01 07:43:22;;;;;;;100.20;15.30;;;16.50;99.90;;;;;;5114949;28;20600;-68
2021/07/01 07:45:51;;;;;;;21.00;5.47;;;16.40;99.90;;;;;;5112246;28;20633;-68
2021/07/01 07:48:18;;;;;;;8.77;4.20;;;16.30;99.90;;;;;;5115016;27;20615;-68
2021/07/01 07:50:52;;;;;;;15.30;4.50;;;16.30;99.90;;;;;;5103363;27;20627;-68
2021/07/01 07:53:30;;;;;;;8.93;4.33;;;16.10;99.90;;;;;;5120248;27;20929;-68
2021/07/01 07:56:05;;;;;;;29.90;6.33;;;16.10;99.90;;;;;;5114114;28;20588;-68
2021/07/01 07:58:38;;;;;;;7.03;4.03;;;15.90;99.90;;;;;;5113187;28;20662;-69
2021/07/01 08:01:08;;;;;;;9.87;3.43;;;15.70;99.90;;;;;;5114067;28;20694;-68
2021/07/01 08:03:38;;;;;;;3.20;2.90;;;15.80;99.90;;;;;;5114335;28;20609;-69
2021/07/01 08:06:05;;;;;;;8.87;3.83;;;15.80;99.90;;;;;;5113983;28;20583;-69
2021/07/01 08:08:35;;;;;;;7.90;2.93;;;15.80;99.90;;;;;;5114073;28;20735;-68
2021/07/01 08:11:07;;;;;;;2.53;2.33;;;15.70;99.90;;;;;;5095572;28;20628;-68
2021/07/01 08:13:38;;;;;;;1.63;1.53;;;15.50;99.90;;;;;;5114065;28;20635;-68
2021/07/01 08:16:05;;;;;;;2.47;1.80;;;15.30;99.90;;;;;;5113532;28;20624;-68
2021/07/01 08:18:40;;;;;;;2.03;1.83;;;14.90;99.90;;;;;;5095281;28;20639;-68
2021/07/01 08:21:09;;;;;;;6.30;2.40;;;14.80;99.90;;;;;;5113761;27;20597;-68
2021/07/01 08:23:36;;;;;;;2.67;2.57;;;14.90;99.90;;;;;;5113771;28;20619;-66
2021/07/01 08:26:04;;;;;;;3.50;2.40;;;14.80;99.90;;;;;;5112818;28;20617;-67
2021/07/01 08:28:30;;;;;;;9.33;3.20;;;14.60;99.90;;;;;;5113383;28;20616;-67
2021/07/01 08:30:59;;;;;;;2.60;2.40;;;14.70;99.90;;;;;;5113080;28;20639;-68
2021/07/01 08:33:33;;;;;;;18.30;3.93;;;14.70;99.90;;;;;;5113190;28;21142;-68
2021/07/01 08:36:01;;;;;;;4.20;1.97;;;14.90;99.90;;;;;;5120664;27;20578;-67
2021/07/01 08:38:33;;;;;;;1.80;1.70;;;14.90;99.90;;;;;;5120396;27;20625;-68
2021/07/01 08:41:19;;;;;;;7.20;2.07;;;14.80;99.90;;;;;;5099495;28;20626;-68
2021/07/01 08:43:59;;;;;;;33.70;5.83;;;14.70;99.90;;;;;;5113589;28;20624;-68
2021/07/01 08:46:46;;;;;;;73.50;10.00;;;15.20;99.90;;;;;;5113578;28;20612;-69
2021/07/01 08:49:15;;;;;;;2.93;2.30;;;15.30;99.90;;;;;;5113524;28;20707;-69
2021/07/01 08:51:45;;;;;;;4.80;2.03;;;15.50;99.90;;;;;;5113271;28;20646;-69
2021/07/01 08:54:25;;;;;;;10.53;3.60;;;15.40;99.90;;;;;;5094601;28;20635;-68
2021/07/01 08:56:54;;;;;;;23.50;6.10;;;15.60;99.90;;;;;;5113374;28;20562;-66
2021/07/01 08:59:23;;;;;;;18.60;3.30;;;15.80;99.90;;;;;;5113142;28;20639;-68
2021/07/01 09:02:02;;;;;;;2.30;2.10;;;15.70;99.90;;;;;;5113150;28;20623;-67
2021/07/01 09:04:30;;;;;;;6.50;2.53;;;15.80;99.90;;;;;;5094624;28;20613;-67
2021/07/01 09:07:05;;;;;;;11.10;2.80;;;15.70;99.90;;;;;;5113172;28;21150;-68
2021/07/01 09:09:34;;;;;;;7.23;2.00;;;15.60;99.90;;;;;;5119628;27;20589;-67
2021/07/01 09:12:07;;;;;;;2.20;2.10;;;15.50;99.90;;;;;;5127847;27;20981;-68
2021/07/01 09:14:36;;;;;;;7.67;2.10;;;15.50;99.90;;;;;;5098803;28;20976;-68
2021/07/01 09:17:08;;;;;;;13.90;3.43;;;15.40;99.90;;;;;;5116724;28;21136;-68
2021/07/01 09:19:37;;;;;;;63.47;9.33;;;15.60;99.90;;;;;;5116627;28;20988;-68
2021/07/01 09:22:03;;;;;;;301.40;32.87;;;15.60;99.90;;;;;;5116659;28;20603;-68
2021/07/01 09:24:35;;;;;;;40.17;8.13;;;15.60;99.90;;;;;;5117346;28;20627;-70
2021/07/01 09:27:09;;;;;;;21.83;4.20;;;15.40;99.90;;;;;;5117128;28;20589;-70
2021/07/01 09:29:37;;;;;;;2.47;2.37;;;15.40;99.90;;;;;;5117129;28;21152;-69
2021/07/01 09:32:04;;;;;;;53.53;7.50;;;15.20;99.90;;;;;;5116909;28;21186;-69
2021/07/01 09:34:33;;;;;;;60.03;9.20;;;15.40;99.90;;;;;;5117370;28;20563;-70
2021/07/01 09:37:02;;;;;;;30.27;4.93;;;15.60;99.90;;;;;;5117672;28;20616;-69
2021/07/01 09:39:30;;;;;;;3.33;2.63;;;15.50;99.90;;;;;;5117204;28;20606;-69
2021/07/01 09:42:00;;;;;;;3.67;2.40;;;15.50;99.90;;;;;;5117369;28;20636;-69
2021/07/01 09:44:28;;;;;;;4.27;2.30;;;15.40;99.90;;;;;;5116399;28;21166;-68
2021/07/01 09:46:59;;;;;;;2.87;2.67;;;15.60;99.90;;;;;;5116540;28;20621;-68
2021/07/01 09:49:32;;;;;;;3.00;2.67;;;15.60;99.90;;;;;;5117001;28;21192;-69
2021/07/01 09:52:11;;;;;;;2.00;1.90;;;15.60;99.90;;;;;;5117061;28;20599;-69
2021/07/01 09:54:49;;;;;;;3.60;3.40;;;15.40;99.90;;;;;;5116802;28;20623;-68
2021/07/01 09:57:24;;;;;;;3.13;2.87;;;15.60;99.90;;;;;;5116430;28;20616;-69
2021/07/01 09:59:57;;;;;;;2.80;2.70;;;15.80;99.90;;;;;;5117338;28;21135;-69
2021/07/01 10:02:24;;;;;;;2.63;2.43;;;15.80;99.90;;;;;;5107604;28;20580;-69
2021/07/01 10:04:51;;;;;;;2.73;2.53;;;15.80;99.90;;;;;;5110812;28;20623;-69
2021/07/01 10:07:22;;;;;;;2.20;2.10;;;15.80;99.90;;;;;;5116364;28;20582;-69
2021/07/01 10:09:53;;;;;;;133.33;17.20;;;15.70;99.90;;;;;;5116712;28;20568;-69
2021/07/01 10:12:29;;;;;;;12.33;3.07;;;15.80;99.90;;;;;;5116752;28;20988;-69
2021/07/01 10:14:58;;;;;;;8.93;4.33;;;15.70;99.90;;;;;;5116761;28;20567;-69
2021/07/01 10:17:26;;;;;;;4.93;2.63;;;15.80;99.90;;;;;;5116095;28;20586;-69
2021/07/01 10:20:07;;;;;;;91.67;12.90;;;15.80;99.90;;;;;;5115400;28;20647;-68
2021/07/01 10:22:39;;;;;;;19.93;5.00;;;15.80;99.90;;;;;;5103316;28;20605;-68
2021/07/01 10:25:06;;;;;;;5.50;2.50;;;15.80;99.90;;;;;;5093613;28;20623;-68
2021/07/01 10:27:41;;;;;;;8.53;2.33;;;15.90;99.90;;;;;;5107400;28;20615;-68
2021/07/01 10:30:25;;;;;;;58.47;8.63;;;16.00;99.90;;;;;;5115461;28;20925;-68
2021/07/01 10:32:57;;;;;;;26.93;4.47;;;15.80;99.90;;;;;;5115779;28;20655;-69
2021/07/01 10:35:33;;;;;;;5.23;2.40;;;15.80;99.90;;;;;;5115249;28;21063;-69
2021/07/01 10:38:03;;;;;;;33.23;5.80;;;15.80;99.90;;;;;;5115784;28;20948;-69
2021/07/01 10:40:31;;;;;;;6.03;3.07;;;15.70;99.90;;;;;;5115818;28;20677;-69
2021/07/01 10:42:58;;;;;;;2.23;2.13;;;15.60;99.90;;;;;;5103296;28;21172;-69
2021/07/01 10:45:25;;;;;;;2.87;2.67;;;15.60;99.90;;;;;;5095257;28;21071;-69
2021/07/01 10:47:52;;;;;;;7.07;3.80;;;15.80;99.90;;;;;;5116258;28;20643;-69
2021/07/01 10:50:21;;;;;;;6.13;3.20;;;15.70;99.90;;;;;;5115008;28;20713;-69
2021/07/01 10:52:48;;;;;;;4.23;3.43;;;15.70;99.90;;;;;;5097030;28;20610;-69
2021/07/01 10:55:15;;;;;;;2.60;2.40;;;16.00;99.90;;;;;;5115483;28;20646;-69
2021/07/01 10:58:15;;;;;;;3.67;3.37;;;16.20;99.90;;;;;;5114680;28;20598;-69
2021/07/01 11:00:44;;;;;;;3.20;3.00;;;15.60;99.90;;;;;;5115480;28;20729;-69
2021/07/01 11:03:25;;;;;;;4.50;2.90;;;15.70;99.90;;;;;;5114974;28;20619;-69
2021/07/01 11:05:53;;;;;;;2.77;2.57;;;15.70;99.90;;;;;;5115314;28;20633;-68
2021/07/01 11:08:29;;;;;;;2.47;2.37;;;15.70;99.90;;;;;;5096763;28;21256;-69
2021/07/01 11:10:56;;;;;;;3.43;3.13;;;16.00;99.90;;;;;;5097288;28;20628;-69
2021/07/01 11:13:25;;;;;;;3.40;3.10;;;16.50;99.90;;;;;;5114916;28;20610;-69
2021/07/01 11:16:08;;;;;;;4.60;3.60;;;16.70;99.90;;;;;;5115299;28;20690;-69
2021/07/01 11:18:41;;;;;;;3.40;3.20;;;16.70;99.90;;;;;;5114683;28;20616;-69
2021/07/01 11:21:34;;;;;;;3.10;2.90;;;16.70;99.90;;;;;;5115097;28;20611;-69
2021/07/01 11:24:22;;;;;;;3.07;2.87;;;16.50;99.90;;;;;;5110874;28;20806;-69
2021/07/01 11:27:01;;;;;;;3.40;3.20;;;16.80;99.90;;;;;;5115006;28;20711;-67
2021/07/01 11:29:38;;;;;;;2.70;2.60;;;16.60;99.90;;;;;;5114269;28;20602;-69
2021/07/01 11:32:27;;;;;;;3.17;2.97;;;16.80;99.90;;;;;;5095584;28;20671;-69
2021/07/01 11:34:56;;;;;;;5.00;3.30;;;17.10;99.90;;;;;;5114472;28;20612;-68
2021/07/01 11:37:37;;;;;;;3.20;3.00;;;16.80;99.90;;;;;;5114108;28;20625;-68
2021/07/01 11:40:21;;;;;;;3.37;3.07;;;16.60;99.90;;;;;;5114098;28;20660;-68
2021/07/01 11:42:53;;;;;;;3.17;2.87;;;16.40;99.90;;;;;;5114628;28;20616;-70
2021/07/01 11:45:21;;;;;;;3.70;3.40;;;16.30;99.90;;;;;;5113992;28;21024;-69
2021/07/01 11:47:51;;;;;;;5.70;3.20;;;16.10;99.90;;;;;;5114460;28;20613;-69
2021/07/01 11:50:17;;;;;;;3.43;3.13;;;16.20;99.90;;;;;;5114514;28;20620;-69
2021/07/01 11:52:44;;;;;;;8.40;3.30;;;16.10;99.90;;;;;;5113651;28;20694;-69
2021/07/01 11:55:11;;;;;;;4.10;3.80;;;16.10;99.90;;;;;;5114199;28;20708;-69
2021/07/01 11:57:38;;;;;;;4.57;4.17;;;15.80;99.90;;;;;;5114040;28;20608;-70
2021/07/01 12:00:05;;;;;;;8.23;4.53;;;15.70;99.90;;;;;;5113849;28;20744;-70
2021/07/01 12:02:33;;;;;;;9.50;3.67;;;15.50;99.90;;;;;;5113687;28;20627;-69
2021/07/01 12:05:03;;;;;;;12.10;4.27;;;15.30;99.90;;;;;;5114050;28;20617;-68
2021/07/01 12:07:33;;;;;;;4.00;3.70;;;15.10;99.90;;;;;;5114176;28;20602;-68
2021/07/01 12:10:00;;;;;;;9.63;3.73;;;15.10;99.90;;;;;;5113979;28;21201;-69
2021/07/01 12:12:27;;;;;;;5.90;3.40;;;15.00;99.90;;;;;;5114466;28;20684;-68
2021/07/01 12:15:08;;;;;;;4.37;4.07;;;15.00;99.90;;;;;;5114417;28;20596;-70
2021/07/01 12:18:02;;;;;;;4.80;4.30;;;15.10;99.90;;;;;;5114269;28;20612;-69
2021/07/01 12:20:39;;;;;;;4.03;3.73;;;15.40;99.90;;;;;;5114131;28;20597;-69
2021/07/01 12:23:25;;;;;;;3.40;3.20;;;15.40;99.90;;;;;;5113593;28;20608;-69
2021/07/01 12:25:53;;;;;;;4.00;3.70;;;15.40;99.90;;;;;;5114492;28;20578;-68
2021/07/01 12:28:26;;;;;;;5.40;4.37;;;15.30;99.90;;;;;;5113883;28;20596;-69
2021/07/01 12:30:56;;;;;;;20.50;4.20;;;15.50;99.90;;;;;;5113815;28;20556;-68
2021/07/01 12:33:47;;;;;;;37.33;8.93;;;15.70;99.90;;;;;;5114032;28;20569;-69
2021/07/01 12:36:25;;;;;;;21.50;6.10;;;15.60;99.90;;;;;;5113844;28;20960;-69
2021/07/01 12:39:04;;;;;;;24.80;7.03;;;15.60;99.90;;;;;;5113525;28;20619;-69
2021/07/01 12:41:39;;;;;;;23.77;6.53;;;15.60;99.90;;;;;;5113837;28;21046;-69
2021/07/01 12:44:13;;;;;;;54.97;10.00;;;15.80;99.90;;;;;;5113585;28;21000;-69
2021/07/01 12:46:42;;;;;;;34.33;7.30;;;15.80;99.90;;;;;;5114212;28;20552;-69
2021/07/01 12:51:48;;;;;;;11.97;4.80;;;16.00;99.90;;;;;;5113897;28;20599;-69
2021/07/01 12:54:37;;;;;;;6.20;4.33;;;16.20;99.90;;;;;;5114183;28;20961;-68
2021/07/01 12:57:09;;;;;;;4.73;4.23;;;16.00;99.90;;;;;;5113880;28;21051;-68
2021/07/01 12:59:36;;;;;;;4.63;3.77;;;16.00;99.90;;;;;;5113755;28;20628;-68
2021/07/01 13:02:07;;;;;;;4.43;4.03;;;16.00;99.90;;;;;;5113700;28;20954;-68